createdAt,value
2022-09-04T00:02:10.240Z,100.00
2022-09-04T00:04:49.120Z,100.00
2022-09-04T00:07:25.371Z,100.00
2022-09-04T00:10:09.652Z,100.00
2022-09-04T00:12:45.268Z,100.00
2022-09-04T00:15:19.448Z,100.00
2022-09-04T00:17:54.901Z,100.00
2022-09-04T00:20:33.207Z,100.00
2022-09-04T00:23:08.066Z,100.00
2022-09-04T00:25:42.244Z,100.00
2022-09-04T00:28:18.317Z,100.00
2022-09-04T00:30:54.253Z,100.00
2022-09-04T00:33:28.433Z,100.00
2022-09-04T00:36:01.023Z,100.00
2022-09-04T00:38:42.164Z,100.00
2022-09-04T00:41:22.756Z,100.00
2022-09-04T00:44:09.676Z,100.00
2022-09-04T00:47:20.541Z,100.00
2022-09-04T00:50:14.746Z,100.00
2022-09-04T00:53:06.490Z,100.00
2022-09-04T00:55:57.864Z,100.00
2022-09-04T00:58:40.656Z,100.00
2022-09-04T01:01:12.845Z,100.00
2022-09-04T01:04:25.256Z,100.00
2022-09-04T01:07:11.411Z,100.00
2022-09-04T01:10:00.280Z,100.00
2022-09-04T01:12:39.110Z,100.00
2022-09-04T01:15:16.107Z,100.00
2022-09-04T01:17:54.666Z,100.00
2022-09-04T01:20:39.256Z,100.00
2022-09-04T01:23:36.877Z,100.00
2022-09-04T01:26:23.905Z,100.00
2022-09-04T01:29:02.757Z,100.00
2022-09-04T01:31:40.151Z,100.00
2022-09-04T01:34:26.719Z,100.00
2022-09-04T01:37:01.077Z,100.00
2022-09-04T01:39:32.806Z,100.00
2022-09-04T01:42:08.011Z,100.00
2022-09-04T01:44:36.965Z,100.00
2022-09-04T01:47:16.626Z,100.00
2022-09-04T01:49:49.768Z,100.00
2022-09-04T01:52:36.639Z,100.00
2022-09-04T01:55:14.756Z,100.00
2022-09-04T01:57:55.456Z,100.00
2022-09-04T02:00:25.040Z,100.00
2022-09-04T02:03:02.269Z,100.00
2022-09-04T02:05:37.749Z,100.00
2022-09-04T02:08:17.453Z,100.00
2022-09-04T02:10:52.014Z,100.00
2022-09-04T02:13:30.292Z,100.00
2022-09-04T02:16:08.349Z,100.00
2022-09-04T02:18:50.970Z,100.00
2022-09-04T02:21:27.038Z,100.00
2022-09-04T02:24:05.727Z,100.00
2022-09-04T02:26:42.221Z,100.00
2022-09-04T02:29:20.249Z,100.00
2022-09-04T02:31:57.132Z,100.00
2022-09-04T02:34:36.181Z,100.00
2022-09-04T02:37:12.994Z,100.00
2022-09-04T02:39:56.277Z,100.00
2022-09-04T02:42:32.188Z,100.00
2022-09-04T02:45:14.862Z,100.00
2022-09-04T02:47:48.839Z,100.00
2022-09-04T02:50:32.300Z,100.00
2022-09-04T02:53:18.384Z,100.00
2022-09-04T02:55:59.683Z,100.00
2022-09-04T02:58:36.973Z,100.00
2022-09-04T03:01:12.871Z,100.00
2022-09-04T03:03:48.103Z,100.00
2022-09-04T03:06:23.234Z,100.00
2022-09-04T03:08:57.650Z,100.00
2022-09-04T03:11:32.951Z,100.00
2022-09-04T03:14:08.160Z,100.00
2022-09-04T03:16:43.492Z,100.00
2022-09-04T03:19:19.668Z,100.00
2022-09-04T03:21:54.812Z,100.00
2022-09-04T03:24:29.498Z,100.00
2022-09-04T03:27:02.616Z,100.00
2022-09-04T03:29:39.368Z,100.00
2022-09-04T03:32:19.720Z,100.00
2022-09-04T03:34:53.311Z,100.00
2022-09-04T03:37:34.191Z,100.00
2022-09-04T03:40:14.289Z,100.00
2022-09-04T03:42:59.550Z,100.00
2022-09-04T03:45:35.673Z,100.00
2022-09-04T03:48:16.654Z,100.00
2022-09-04T03:50:52.699Z,100.00
2022-09-04T03:53:31.297Z,100.00
2022-09-04T03:56:28.639Z,100.00
2022-09-04T03:59:04.598Z,100.00
2022-09-04T04:01:45.383Z,100.00
2022-09-04T04:04:44.153Z,100.00
2022-09-04T04:07:25.114Z,100.00
2022-09-04T04:10:03.652Z,100.00
2022-09-04T04:12:49.850Z,100.00
2022-09-04T04:15:31.578Z,100.00
2022-09-04T04:18:18.050Z,100.00
2022-09-04T04:20:57.067Z,100.00
2022-09-04T04:23:56.897Z,100.00
2022-09-04T04:26:40.648Z,100.00
2022-09-04T04:29:30.193Z,100.00
2022-09-04T04:32:16.727Z,100.00
2022-09-04T04:35:05.663Z,100.00
2022-09-04T04:37:51.658Z,100.00
2022-09-04T04:40:33.707Z,100.00
2022-09-04T04:43:13.997Z,100.00
2022-09-04T04:45:50.358Z,100.00
2022-09-04T04:48:47.712Z,100.00
2022-09-04T04:51:31.380Z,100.00
2022-09-04T04:54:16.129Z,100.00
2022-09-04T04:56:51.629Z,100.00
2022-09-04T04:59:24.169Z,100.00
2022-09-04T05:02:04.837Z,100.00
2022-09-04T05:04:46.025Z,100.00
2022-09-04T05:07:26.745Z,100.00
2022-09-04T05:10:02.832Z,100.00
2022-09-04T05:12:49.482Z,100.00
2022-09-04T05:15:22.244Z,100.00
2022-09-04T05:17:54.631Z,100.00
2022-09-04T05:20:34.335Z,100.00
2022-09-04T05:23:14.023Z,100.00
2022-09-04T05:25:52.704Z,100.00
2022-09-04T05:28:31.201Z,100.00
2022-09-04T05:31:10.805Z,100.00
2022-09-04T05:33:46.160Z,100.00
2022-09-04T05:36:21.088Z,100.00
2022-09-04T05:38:59.419Z,100.00
2022-09-04T05:42:04.472Z,100.00
2022-09-04T05:44:46.239Z,100.00
2022-09-04T05:47:30.649Z,100.00
2022-09-04T05:50:25.424Z,100.00
2022-09-04T05:53:11.261Z,100.00
2022-09-04T05:55:59.616Z,100.00
2022-09-04T05:58:57.150Z,100.00
2022-09-04T06:01:52.446Z,100.00
2022-09-04T06:04:43.152Z,100.00
2022-09-04T06:07:19.219Z,100.00
2022-09-04T06:10:00.958Z,100.00
2022-09-04T06:12:58.853Z,100.00
2022-09-04T06:15:37.570Z,100.00
2022-09-04T06:18:40.961Z,100.00
2022-09-04T06:21:22.391Z,100.00
2022-09-04T06:24:02.353Z,100.00
2022-09-04T06:26:46.907Z,100.00
2022-09-04T06:29:28.901Z,100.00
2022-09-04T06:32:20.795Z,100.00
2022-09-04T06:35:09.473Z,100.00
2022-09-04T06:37:45.466Z,100.00
2022-09-04T06:40:26.706Z,100.00
2022-09-04T06:43:08.653Z,100.00
2022-09-04T06:45:49.416Z,100.00
2022-09-04T06:48:34.004Z,100.00
2022-09-04T06:51:13.732Z,100.00
2022-09-04T06:53:51.455Z,100.00
2022-09-04T06:56:35.237Z,100.00
2022-09-04T06:59:25.141Z,100.00
2022-09-04T07:02:04.594Z,100.00
2022-09-04T07:04:45.482Z,100.00
2022-09-04T07:07:23.427Z,100.00
2022-09-04T07:10:01.161Z,100.00
2022-09-04T07:12:56.705Z,100.00
2022-09-04T07:15:44.447Z,100.00
2022-09-04T07:18:31.314Z,100.00
2022-09-04T07:21:12.169Z,100.00
2022-09-04T07:23:46.882Z,100.00
2022-09-04T07:26:28.414Z,100.00
2022-09-04T07:29:26.009Z,100.00
2022-09-04T07:32:02.458Z,100.00
2022-09-04T07:34:39.158Z,100.00
2022-09-04T07:37:17.472Z,100.00
2022-09-04T07:39:55.578Z,100.00
2022-09-04T07:42:32.753Z,100.00
2022-09-04T07:45:06.436Z,100.00
2022-09-04T07:47:43.062Z,100.00
2022-09-04T07:50:14.637Z,100.00
2022-09-04T07:53:04.255Z,100.00
2022-09-04T07:55:41.738Z,100.00
2022-09-04T07:58:34.530Z,100.00
2022-09-04T08:01:19.665Z,100.00
2022-09-04T08:04:08.456Z,100.00
2022-09-04T08:06:41.188Z,100.00
2022-09-04T08:09:28.229Z,100.00
2022-09-04T08:12:19.037Z,100.00
2022-09-04T08:14:55.519Z,100.00
2022-09-04T08:17:43.131Z,100.00
2022-09-04T08:20:34.630Z,100.00
2022-09-04T08:23:18.470Z,100.00
2022-09-04T08:25:55.934Z,100.00
2022-09-04T08:28:40.169Z,100.00
2022-09-04T08:31:24.267Z,100.00
2022-09-04T08:34:11.278Z,100.00
2022-09-04T08:36:45.209Z,100.00
2022-09-04T08:39:20.907Z,100.00
2022-09-04T08:42:31.425Z,100.00
2022-09-04T08:45:32.369Z,100.00
2022-09-04T08:48:49.316Z,100.00
2022-09-04T08:51:57.140Z,100.00
2022-09-04T08:55:00.694Z,100.00
2022-09-04T08:58:04.611Z,100.00
2022-09-04T09:00:48.087Z,100.00
2022-09-04T09:03:41.534Z,100.00
2022-09-04T09:06:55.174Z,100.00
2022-09-04T09:10:09.744Z,100.00
2022-09-04T09:13:20.220Z,100.00
2022-09-04T09:16:10.458Z,100.00
2022-09-04T09:18:42.549Z,100.00
2022-09-04T09:21:13.645Z,100.00
2022-09-04T09:24:00.588Z,100.00
2022-09-04T09:26:31.104Z,100.00
2022-09-04T09:29:35.047Z,100.00
2022-09-04T09:32:38.462Z,100.00
2022-09-04T09:35:58.791Z,100.00
2022-09-04T09:38:56.997Z,100.00
2022-09-04T09:41:46.962Z,100.00
2022-09-04T09:44:48.288Z,100.00
2022-09-04T09:50:42.963Z,97.15
2022-09-04T09:53:46.853Z,93.41
2022-09-04T09:56:55.670Z,90.18
2022-09-04T09:59:45.380Z,96.32
2022-09-04T10:03:01.275Z,89.19
2022-09-04T10:06:07.468Z,88.23
2022-09-04T10:09:09.386Z,79.26
2022-09-04T10:12:18.786Z,74.97
2022-09-04T10:15:19.663Z,70.08
2022-09-04T10:18:23.150Z,78.54
2022-09-04T10:21:27.257Z,82.62
2022-09-04T10:24:27.588Z,81.41
2022-09-04T10:27:21.375Z,86.50
2022-09-04T10:30:04.417Z,82.37
2022-09-04T10:33:18.695Z,66.13
2022-09-04T10:36:06.281Z,58.83
2022-09-04T10:39:01.381Z,51.35
2022-09-04T10:42:03.504Z,57.93
2022-09-04T10:44:44.492Z,48.27
2022-09-04T10:47:28.064Z,52.81
2022-09-04T10:50:26.517Z,51.43
2022-09-04T10:53:20.670Z,50.84
2022-09-04T10:56:09.200Z,58.66
2022-09-04T10:59:04.886Z,60.03
2022-09-04T11:02:01.798Z,54.44
2022-09-04T11:05:00.918Z,51.67
2022-09-04T11:07:46.200Z,50.91
2022-09-04T11:10:34.082Z,59.76
2022-09-04T11:13:28.158Z,62.83
2022-09-04T11:16:10.591Z,57.72
2022-09-04T11:19:10.436Z,63.22
2022-09-04T11:22:17.126Z,56.72
2022-09-04T11:25:21.988Z,50.88
2022-09-04T11:28:26.824Z,54.97
2022-09-04T11:31:09.507Z,53.97
2022-09-04T11:34:20.140Z,51.68
2022-09-04T11:37:23.924Z,49.77
2022-09-04T11:40:26.719Z,46.66
2022-09-04T11:43:07.910Z,49.68
2022-09-04T11:45:57.699Z,45.70
2022-09-04T11:49:05.208Z,45.77
2022-09-04T11:51:52.661Z,50.82
2022-09-04T11:54:49.528Z,46.71
2022-09-04T11:57:28.774Z,49.26
2022-09-04T12:00:12.776Z,48.78
2022-09-04T12:03:15.135Z,57.38
2022-09-04T12:05:56.293Z,61.34
2022-09-04T12:09:07.152Z,59.52
2022-09-04T12:11:54.963Z,54.10
2022-09-04T12:14:43.121Z,43.43
2022-09-04T12:17:39.301Z,41.28
2022-09-04T12:20:49.719Z,38.13
2022-09-04T12:23:57.745Z,38.35
2022-09-04T12:26:51.627Z,46.88
2022-09-04T12:29:50.371Z,44.89
2022-09-04T12:33:08.978Z,42.48
2022-09-04T12:36:01.701Z,41.27
2022-09-04T12:39:03.553Z,45.69
2022-09-04T12:41:39.030Z,40.31
2022-09-04T12:44:16.514Z,40.84
2022-09-04T12:47:05.384Z,38.47
2022-09-04T12:50:00.337Z,42.53
2022-09-04T12:52:40.420Z,38.23
2022-09-04T12:55:16.685Z,38.62
2022-09-04T12:57:58.237Z,35.49
2022-09-04T13:00:46.064Z,33.41
2022-09-04T13:03:27.612Z,35.85
2022-09-04T13:06:09.852Z,34.49
2022-09-04T13:08:50.508Z,31.74
2022-09-04T13:11:38.087Z,30.50
2022-09-04T13:14:27.883Z,29.67
2022-09-04T13:17:08.467Z,30.59
2022-09-04T13:19:46.465Z,30.71
2022-09-04T13:22:28.772Z,32.72
2022-09-04T13:25:11.504Z,36.04
2022-09-04T13:27:53.975Z,43.39
2022-09-04T13:30:25.574Z,45.40
2022-09-04T13:33:39.703Z,47.50
2022-09-04T13:36:24.432Z,45.54
2022-09-04T13:39:23.571Z,43.83
2022-09-04T13:42:37.515Z,41.25
2022-09-04T13:45:11.883Z,40.07
2022-09-04T13:47:49.621Z,42.17
2022-09-04T13:50:25.755Z,47.59
2022-09-04T13:52:59.782Z,57.04
2022-09-04T13:55:32.942Z,48.43
2022-09-04T13:58:10.577Z,57.52
2022-09-04T14:00:45.829Z,55.53
2022-09-04T14:03:26.014Z,47.81
2022-09-04T14:05:54.835Z,46.37
2022-09-04T14:08:24.456Z,46.15
2022-09-04T14:11:27.809Z,42.44
2022-09-04T14:14:33.175Z,41.92
2022-09-04T14:17:01.204Z,45.74
2022-09-04T14:19:43.613Z,45.91
2022-09-04T14:22:25.003Z,42.95
2022-09-04T14:25:06.507Z,41.46
2022-09-04T14:27:47.862Z,43.23
2022-09-04T14:30:18.051Z,42.57
2022-09-04T14:33:07.321Z,41.64
2022-09-04T14:35:46.720Z,41.80
2022-09-04T14:38:35.279Z,50.94
2022-09-04T14:41:16.138Z,49.29
2022-09-04T14:43:50.917Z,47.57
2022-09-04T14:46:24.182Z,47.76
2022-09-04T14:49:02.134Z,51.44
2022-09-04T14:51:38.400Z,52.49
2022-09-04T14:54:08.489Z,59.86
2022-09-04T14:56:43.777Z,59.14
2022-09-04T14:59:22.188Z,63.30
2022-09-04T15:02:07.884Z,63.83
2022-09-04T15:04:43.973Z,76.30
2022-09-04T15:07:36.117Z,72.72
2022-09-04T15:10:10.836Z,72.90
2022-09-04T15:12:43.364Z,78.46
2022-09-04T15:15:20.123Z,76.85
2022-09-04T15:17:53.598Z,73.53
2022-09-04T15:20:23.593Z,70.73
2022-09-04T15:22:59.431Z,72.40
2022-09-04T15:25:58.681Z,74.97
2022-09-04T15:28:34.146Z,77.71
2022-09-04T15:31:15.600Z,82.82
2022-09-04T15:33:46.500Z,78.41
2022-09-04T15:36:20.169Z,76.55
2022-09-04T15:38:53.425Z,82.35
2022-09-04T15:41:35.235Z,79.43
2022-09-04T15:44:15.520Z,82.18
2022-09-04T15:46:50.765Z,80.22
2022-09-04T15:49:28.368Z,80.78
2022-09-04T15:52:10.242Z,72.76
2022-09-04T15:55:05.091Z,82.14
2022-09-04T15:57:48.514Z,85.87
2022-09-04T16:00:22.312Z,90.20
2022-09-04T16:02:54.646Z,88.32
2022-09-04T16:05:28.193Z,88.20
2022-09-04T16:08:04.090Z,92.72
2022-09-04T16:10:48.278Z,93.56
2022-09-04T16:13:35.829Z,95.60
2022-09-04T16:16:09.913Z,98.69
2022-09-04T16:18:50.294Z,100.00
2022-09-04T16:21:29.152Z,100.00
2022-09-04T16:24:09.052Z,100.00
2022-09-04T16:26:39.097Z,100.00
2022-09-04T16:29:15.362Z,100.00
2022-09-04T16:31:52.139Z,100.00
2022-09-04T16:34:25.250Z,100.00
2022-09-04T16:37:01.903Z,100.00
2022-09-04T16:39:50.110Z,100.00
2022-09-04T16:42:24.742Z,100.00
2022-09-04T16:44:59.263Z,100.00
2022-09-04T16:47:37.168Z,100.00
2022-09-04T16:50:16.888Z,100.00
2022-09-04T16:52:56.869Z,100.00
2022-09-04T16:55:46.325Z,100.00
2022-09-04T16:58:34.831Z,100.00
2022-09-04T17:01:14.727Z,100.00
2022-09-04T17:04:11.261Z,100.00
2022-09-04T17:06:56.281Z,100.00
2022-09-04T17:09:32.112Z,100.00
2022-09-04T17:12:16.209Z,100.00
2022-09-04T17:14:53.483Z,100.00
2022-09-04T17:17:32.018Z,100.00
2022-09-04T17:20:09.254Z,100.00
2022-09-04T17:29:02.789Z,100.00
2022-09-04T17:29:15.229Z,100.00
2022-09-04T17:29:16.401Z,100.00
2022-09-04T17:31:46.115Z,100.00
2022-09-04T17:40:36.514Z,100.00
2022-09-04T17:40:56.104Z,100.00
2022-09-04T17:41:34.351Z,100.00
2022-09-04T17:43:22.316Z,100.00
2022-09-04T17:46:02.348Z,100.00
2022-09-04T17:48:34.304Z,100.00
2022-09-04T17:51:05.493Z,100.00
2022-09-04T17:53:38.252Z,100.00
2022-09-04T17:56:13.596Z,100.00
2022-09-04T17:58:47.224Z,100.00
2022-09-04T18:01:23.511Z,100.00
2022-09-04T18:04:27.677Z,100.00
2022-09-04T18:07:00.794Z,100.00
2022-09-04T18:10:01.981Z,100.00
2022-09-04T18:12:35.250Z,100.00
2022-09-04T18:15:33.262Z,100.00
2022-09-04T18:18:08.123Z,100.00
2022-09-04T18:20:41.453Z,100.00
2022-09-04T18:23:51.375Z,100.00
2022-09-04T18:26:27.848Z,100.00
2022-09-04T18:33:53.622Z,100.00
2022-09-04T18:37:16.432Z,100.00
2022-09-04T18:37:26.725Z,100.00
2022-09-04T18:38:44.122Z,100.00
2022-09-04T18:44:11.850Z,100.00
2022-09-04T18:50:22.933Z,100.00
2022-09-04T18:50:31.757Z,100.00
2022-09-04T18:50:52.247Z,100.00
2022-09-04T18:53:08.803Z,100.00
2022-09-04T18:55:45.392Z,100.00
2022-09-04T18:58:46.057Z,100.00
2022-09-04T19:01:25.717Z,100.00
2022-09-04T19:03:57.973Z,100.00
2022-09-04T19:06:38.565Z,100.00
2022-09-04T19:09:15.481Z,100.00
2022-09-04T19:11:50.206Z,100.00
2022-09-04T19:14:21.784Z,100.00
2022-09-04T19:16:54.642Z,100.00
2022-09-04T19:19:29.229Z,100.00
2022-09-04T19:22:09.148Z,100.00
2022-09-04T19:24:48.740Z,100.00
2022-09-04T19:27:26.923Z,100.00
2022-09-04T19:30:18.203Z,100.00
2022-09-04T19:33:12.169Z,100.00
2022-09-04T19:35:47.884Z,100.00
2022-09-04T19:40:44.721Z,100.00
2022-09-04T19:46:09.186Z,100.00
2022-09-04T19:46:16.092Z,100.00
2022-09-04T19:47:15.419Z,100.00
2022-09-04T19:53:21.712Z,100.00
2022-09-04T19:53:31.294Z,100.00
2022-09-04T19:56:00.378Z,100.00
2022-09-04T19:58:38.679Z,100.00
2022-09-04T20:01:15.872Z,100.00
2022-09-04T20:03:54.970Z,100.00
2022-09-04T20:06:30.153Z,100.00
2022-09-04T20:09:03.976Z,100.00
2022-09-04T20:11:36.682Z,100.00
2022-09-04T20:14:14.892Z,100.00
2022-09-04T20:16:59.316Z,100.00
2022-09-04T20:19:37.397Z,100.00
2022-09-04T20:22:10.920Z,100.00
2022-09-04T20:24:42.315Z,100.00
2022-09-04T20:27:36.024Z,100.00
2022-09-04T20:30:12.067Z,100.00
2022-09-04T20:32:55.972Z,100.00
2022-09-04T20:35:33.810Z,100.00
2022-09-04T20:38:12.277Z,100.00
2022-09-04T20:40:43.326Z,100.00
2022-09-04T20:43:28.130Z,100.00
2022-09-04T20:48:43.401Z,100.00
2022-09-04T20:52:49.570Z,100.00
2022-09-04T20:52:53.415Z,100.00
2022-09-04T20:55:11.127Z,100.00
2022-09-04T21:03:05.648Z,100.00
2022-09-04T21:03:17.246Z,100.00
2022-09-04T21:03:59.792Z,100.00
2022-09-04T21:06:34.758Z,100.00
2022-09-04T21:09:25.693Z,100.00
2022-09-04T21:12:00.090Z,100.00
2022-09-04T21:14:43.527Z,100.00
2022-09-04T21:17:48.507Z,100.00
2022-09-04T21:20:59.459Z,100.00
2022-09-04T21:24:03.883Z,100.00
2022-09-04T21:27:04.872Z,100.00
2022-09-04T21:29:50.371Z,100.00
2022-09-04T21:32:53.254Z,100.00
2022-09-04T21:35:33.178Z,100.00
2022-09-04T21:38:14.727Z,100.00
2022-09-04T21:41:02.138Z,100.00
2022-09-04T21:43:58.871Z,100.00
2022-09-04T21:46:56.487Z,100.00
2022-09-04T21:49:56.973Z,100.00
2022-09-04T21:52:44.604Z,100.00
2022-09-04T21:59:04.677Z,100.00
2022-09-04T22:02:29.269Z,100.00
2022-09-04T22:02:35.467Z,100.00
2022-09-04T22:04:48.509Z,100.00
2022-09-04T22:11:26.843Z,100.00
2022-09-04T22:13:29.477Z,100.00
2022-09-04T22:13:50.267Z,100.00
2022-09-04T22:16:34.435Z,100.00
2022-09-04T22:19:21.988Z,100.00
2022-09-04T22:22:03.708Z,100.00
2022-09-04T22:24:55.830Z,100.00
2022-09-04T22:28:01.175Z,100.00
2022-09-04T22:30:38.940Z,100.00
2022-09-04T22:33:29.585Z,100.00
2022-09-04T22:36:35.847Z,100.00
2022-09-04T22:39:46.374Z,100.00
2022-09-04T22:42:38.268Z,100.00
2022-09-04T22:45:43.937Z,100.00
2022-09-04T22:48:47.331Z,100.00
2022-09-04T22:51:41.879Z,100.00
2022-09-04T22:54:36.684Z,100.00
2022-09-04T22:57:08.632Z,100.00
2022-09-04T23:00:03.825Z,100.00
2022-09-04T23:03:09.192Z,100.00
2022-09-04T23:06:43.378Z,100.00
2022-09-04T23:13:49.924Z,100.00
2022-09-04T23:13:57.713Z,100.00
2022-09-04T23:15:32.560Z,100.00
2022-09-04T23:20:57.478Z,100.00
2022-09-04T23:26:37.638Z,100.00
2022-09-04T23:26:42.534Z,100.00
2022-09-04T23:27:34.815Z,100.00
2022-09-04T23:30:27.097Z,100.00
2022-09-04T23:33:27.639Z,100.00
2022-09-04T23:36:33.854Z,100.00
2022-09-04T23:39:29.913Z,100.00
2022-09-04T23:42:14.102Z,100.00
2022-09-04T23:45:12.088Z,100.00
2022-09-04T23:48:19.119Z,100.00
2022-09-04T23:50:55.453Z,100.00
2022-09-04T23:53:35.988Z,100.00
2022-09-04T23:56:18.427Z,100.00
2022-09-04T23:59:21.294Z,100.00
